Time;durP1;ratioP1;P1;durP2;ratioP2;P2;SDS_P1;SDS_P2;PMS_P1;PMS_P2;Temp;Humidity;BMP_temperature;BMP_pressure;BME280_temperature;BME280_humidity;BME280_pressure;Samples;Min_cycle;Max_cycle;Signal;HPM_P1;HPM_P2
2021/06/20 00:54:24;;;;;;;12.13;5.78;;;;;;;14.43;81.09;100939.13;4811523;24;20061;-87
2021/06/20 00:56:51;;;;;;;11.05;5.40;;;;;;;14.49;80.75;100951.78;4810784;29;20051;-87
2021/06/20 00:59:17;;;;;;;11.93;5.80;;;;;;;14.94;80.87;101022.06;4822590;29;20051;-87
2021/06/20 01:01:44;;;;;;;11.85;5.97;;;;;;;14.91;80.68;101017.09;4826912;29;20076;-87
2021/06/20 01:04:10;;;;;;;11.73;6.13;;;;;;;14.74;80.63;100991.63;4828505;29;20043;-87
2021/06/20 01:06:37;;;;;;;10.43;6.10;;;;;;;14.61;80.16;100983.63;4827243;29;20035;-87
2021/06/20 01:09:04;;;;;;;9.27;6.00;;;;;;;14.67;80.22;100999.81;4828789;29;20015;-87
2021/06/20 01:11:30;;;;;;;11.27;5.57;;;;;;;14.40;80.36;100953.13;4841901;29;20096;-87
2021/06/20 01:13:56;;;;;;;10.55;5.82;;;;;;;14.41;79.95;100957.50;4829651;29;20027;-87
2021/06/20 01:31:52;;;;;;;11.98;5.35;;;;;;;14.32;80.08;100964.22;5507581;24;20039;-87
2021/06/20 01:34:18;;;;;;;10.55;5.22;;;;;;;14.39;80.17;100975.81;4832220;29;20122;-87
2021/06/20 01:36:44;;;;;;;11.45;5.45;;;;;;;14.28;80.20;100965.72;4831435;29;20039;-87
2021/06/20 01:39:11;;;;;;;11.70;5.60;;;;;;;14.65;80.22;101017.31;4830681;29;20038;-87
2021/06/20 01:44:12;;;;;;;11.13;5.43;;;;;;;14.65;79.95;101014.63;4854998;24;20084;-87
2021/06/20 01:46:38;;;;;;;9.25;5.20;;;;;;;15.04;80.16;101090.13;4814038;29;20176;-87
2021/06/20 01:49:04;;;;;;;11.35;5.35;;;;;;;14.34;79.93;100975.69;4816756;29;20032;-86
2021/06/20 01:51:29;;;;;;;13.18;5.63;;;;;;;14.67;79.94;101013.34;4813893;29;20026;-86
2021/06/20 01:59:05;;;;;;;11.43;5.40;;;;;;;14.50;80.03;101004.94;5510755;24;20046;-86
2021/06/20 02:01:31;;;;;;;12.50;5.53;;;;;;;15.17;80.14;101104.63;4831301;29;20079;-87
2021/06/20 02:03:56;;;;;;;10.82;5.43;;;;;;;14.23;80.05;100958.25;4831528;29;20052;-87
2021/06/20 02:32:14;;;;;;;14.68;6.45;;;;;;;15.13;80.37;101070.88;5451891;24;20043;-86
2021/06/20 02:34:41;;;;;;;15.57;6.80;;;;;;;15.13;80.17;101044.63;4831469;29;20073;-87
2021/06/20 02:37:08;;;;;;;14.07;6.32;;;;;;;14.22;80.16;100907.88;4827464;29;20066;-87
2021/06/20 02:39:34;;;;;;;16.25;6.82;;;;;;;14.09;79.93;100880.91;4829204;29;20019;-86
2021/06/20 02:42:00;;;;;;;12.02;6.97;;;;;;;14.50;79.81;100958.91;4831088;29;20030;-87
2021/06/20 02:44:25;;;;;;;15.95;6.95;;;;;;;14.01;79.97;100882.03;4829961;29;20038;-85
2021/06/20 02:49:26;;;;;;;15.10;7.55;;;;;;;14.94;80.27;101032.91;5656505;24;20064;-86
2021/06/20 02:51:52;;;;;;;17.48;7.65;;;;;;;14.97;80.78;101045.19;4813775;29;20062;-86
2021/06/20 02:54:18;;;;;;;14.73;7.60;;;;;;;13.90;80.49;100877.31;4812928;29;20031;-84
2021/06/20 02:56:44;;;;;;;18.38;7.63;;;;;;;14.31;80.52;100943.63;4812574;29;20023;-87
2021/06/20 03:53:28;;;;;;;23.58;8.85;;;;;;;13.69;83.23;100888.50;5385136;24;20053;-86
2021/06/20 03:55:57;;;;;;;25.10;9.32;;;;;;;13.69;83.56;100888.50;4830213;29;20054;-86
2021/06/20 04:21:42;;;;;;;18.02;8.80;;;;;;;14.47;83.07;100997.22;5585051;24;20050;-84
2021/06/20 04:24:08;;;;;;;14.65;8.25;;;;;;;14.03;82.69;100915.09;4810874;29;20011;-87
2021/06/20 04:26:35;;;;;;;20.10;8.15;;;;;;;14.40;83.14;100947.69;4812625;29;20020;-87
2021/06/20 04:29:00;;;;;;;23.17;7.50;;;;;;;14.36;82.79;100935.66;4829587;29;20046;-87
2021/06/20 04:31:26;;;;;;;17.67;7.35;;;;;;;14.45;82.63;100938.94;4828834;29;20078;-86
2021/06/20 04:52:11;;;;;;;11.38;5.50;;;;;;;14.60;81.30;100930.47;5668634;24;20051;-87
2021/06/20 04:54:50;;;;;;;9.52;5.63;;;;;;;14.89;81.21;100978.53;4810199;29;20015;-87
2021/06/20 04:57:18;;;;;;;9.88;5.50;;;;;;;14.75;80.92;100955.34;4811007;29;20046;-87
2021/06/20 04:59:44;;;;;;;10.52;5.97;;;;;;;14.92;80.65;100978.09;4805461;29;20019;-86
2021/06/20 05:02:10;;;;;;;9.88;6.28;;;;;;;15.22;80.94;101029.69;4811756;29;20083;-86
2021/06/20 05:04:36;;;;;;;12.57;6.43;;;;;;;14.72;80.82;100953.91;4813114;30;20019;-85
2021/06/20 05:07:03;;;;;;;11.40;6.28;;;;;;;15.51;80.65;101073.44;4812439;29;20023;-86
2021/06/20 05:09:28;;;;;;;12.23;6.28;;;;;;;14.77;80.58;100956.78;4814080;29;20007;-85
2021/06/20 05:11:54;;;;;;;11.77;6.65;;;;;;;15.28;80.63;101030.69;4813285;29;20071;-86
2021/06/20 05:14:20;;;;;;;11.30;6.65;;;;;;;14.82;80.57;100966.13;4813386;29;20040;-86
2021/06/20 05:16:46;;;;;;;11.02;6.10;;;;;;;14.72;80.60;100940.38;4812555;29;20107;-86
2021/06/20 05:19:11;;;;;;;12.00;6.40;;;;;;;15.16;80.18;101000.78;4813883;29;20090;-86
2021/06/20 05:21:37;;;;;;;10.15;6.22;;;;;;;14.82;80.07;100939.84;4811063;29;20092;-86
2021/06/20 05:24:06;;;;;;;10.90;6.50;;;;;;;14.60;79.95;100893.38;4813803;29;20072;-86
2021/06/20 05:26:32;;;;;;;14.55;7.05;;;;;;;14.72;80.26;100912.47;4813795;29;20074;-85
2021/06/20 05:28:58;;;;;;;12.45;6.10;;;;;;;14.85;80.14;100911.50;4813626;29;20043;-86
2021/06/20 05:31:23;;;;;;;10.57;6.25;;;;;;;14.80;80.04;100887.78;4811760;30;20053;-85
2021/06/20 05:33:49;;;;;;;12.95;6.20;;;;;;;15.17;79.96;100950.13;4814269;29;20035;-86
2021/06/20 05:36:15;;;;;;;12.35;5.50;;;;;;;14.95;79.54;100906.38;4813953;29;20034;-86
2021/06/20 05:51:37;;;;;;;9.35;6.72;;;;;;;15.19;79.46;100900.03;4836997;24;20055;-86
2021/06/20 05:54:03;;;;;;;12.30;7.07;;;;;;;15.32;79.40;100922.63;4831633;29;20046;-86
2021/06/20 05:56:29;;;;;;;10.55;6.53;;;;;;;15.96;79.40;101016.97;4830971;29;20043;-87
2021/06/20 05:58:55;;;;;;;13.32;6.85;;;;;;;15.11;79.15;100856.16;4831971;29;20094;-86
2021/06/20 06:01:20;;;;;;;10.77;6.80;;;;;;;16.06;79.03;101013.72;4825120;29;20019;-85
2021/06/20 06:03:46;;;;;;;8.95;6.32;;;;;;;15.57;79.00;100904.38;4813538;29;20027;-86
2021/06/20 06:06:12;;;;;;;9.82;5.72;;;;;;;15.58;78.77;100916.03;4818009;29;20021;-86
2021/06/20 06:08:37;;;;;;;9.50;5.95;;;;;;;15.62;78.75;100923.47;4831800;29;20015;-86
2021/06/20 06:11:03;;;;;;;9.68;6.30;;;;;;;15.35;78.48;100857.09;4829325;29;20027;-86
2021/06/20 06:13:28;;;;;;;10.25;5.68;;;;;;;15.65;78.41;100895.06;4830641;29;20031;-86
2021/06/20 06:28:50;;;;;;;6.38;4.43;;;;;;;16.32;77.12;100955.44;4829521;29;20054;-86
2021/06/20 06:31:15;;;;;;;6.88;4.80;;;;;;;15.71;77.05;100850.78;4829117;29;20022;-86
2021/06/20 06:33:41;;;;;;;6.05;4.90;;;;;;;16.11;77.06;100904.44;4831222;29;20038;-86
2021/06/20 06:36:07;;;;;;;8.95;5.13;;;;;;;15.87;76.93;100855.53;4831569;29;20050;-86
2021/06/20 06:54:04;;;;;;;8.20;5.28;;;;;;;16.33;76.04;100861.25;5409970;24;20055;-85
2021/06/20 06:56:30;;;;;;;7.18;5.50;;;;;;;16.44;75.89;100863.97;4811757;29;20062;-86
2021/06/20 06:58:58;;;;;;;7.32;5.22;;;;;;;16.65;75.83;100872.56;4812294;29;20019;-85
2021/06/20 07:01:24;;;;;;;9.80;5.20;;;;;;;17.64;75.44;100994.06;4812933;29;20129;-84
2021/06/20 07:03:52;;;;;;;8.45;5.15;;;;;;;16.68;74.95;100834.06;4812183;29;20055;-86
2021/06/20 07:06:19;;;;;;;8.90;5.00;;;;;;;17.20;74.55;100890.34;4811860;29;20022;-85
2021/06/20 07:11:21;;;;;;;10.30;5.10;;;;;;;16.97;74.50;100842.31;5297928;24;20047;-85
2021/06/20 07:18:57;;;;;;;8.90;5.15;;;;;;;17.34;74.04;100853.63;5268454;24;20042;-88
2021/06/20 07:21:23;;;;;;;6.80;5.13;;;;;;;17.41;73.52;100842.63;4830201;29;20083;-86
2021/06/20 07:34:09;;;;;;;10.85;5.90;;;;;;;17.87;72.24;100814.34;5872726;24;20020;-78
2021/06/20 07:36:34;;;;;;;9.38;5.43;;;;;;;19.03;71.32;100958.06;4843479;29;20090;-84
2021/06/20 07:39:02;;;;;;;8.63;5.53;;;;;;;19.29;70.72;100950.25;4848601;29;20029;-86
2021/06/20 07:41:28;;;;;;;10.55;5.80;;;;;;;19.20;70.29;100945.25;4833550;29;20035;-85
2021/06/20 07:43:53;;;;;;;12.02;5.25;;;;;;;19.27;70.17;100949.66;4814739;29;20083;-86
2021/06/20 07:46:18;;;;;;;8.48;5.53;;;;;;;19.17;70.11;100937.56;4813003;29;20145;-86
2021/06/20 07:48:44;;;;;;;8.10;5.65;;;;;;;19.00;70.49;100928.56;4827483;29;20027;-85
2021/06/20 07:51:09;;;;;;;8.73;5.78;;;;;;;18.78;71.00;100923.94;4829998;29;20027;-86
2021/06/20 08:13:04;;;;;;;9.65;6.20;;;;;;;19.45;68.51;100908.41;5883896;24;21003;31
2021/06/20 08:15:30;;;;;;;;;;;;;;;19.45;68.01;100892.88;4796729;29;20039;-86
2021/06/20 08:25:41;;;;;;;9.10;5.20;;;;;;;18.73;67.67;100683.97;5440084;24;20043;-85
2021/06/20 08:30:42;;;;;;;8.50;5.93;;;;;;;18.37;68.35;100673.72;4996860;24;20071;-87
2021/06/20 08:33:07;;;;;;;12.18;5.50;;;;;;;18.67;68.14;100697.78;4827204;29;20038;-85
2021/06/20 08:40:44;;;;;;;8.57;5.40;;;;;;;18.76;68.55;100691.63;5079919;24;20058;-84
2021/06/20 08:43:10;;;;;;;7.35;5.00;;;;;;;19.45;68.45;100802.81;4812676;29;20100;-85
2021/06/20 08:45:37;;;;;;;6.28;4.40;;;;;;;20.18;67.76;100816.81;4815492;29;20054;-85
2021/06/20 08:48:03;;;;;;;6.35;4.18;;;;;;;19.42;66.47;100663.34;4810911;29;20018;-84
2021/06/20 08:50:29;;;;;;;8.40;4.57;;;;;;;19.87;66.52;100724.84;4811548;29;20035;-84
2021/06/20 08:52:55;;;;;;;10.07;4.35;;;;;;;20.36;66.92;100842.06;4810247;29;20019;-85
2021/06/20 08:55:23;;;;;;;7.82;4.43;;;;;;;19.64;65.82;100668.72;4810443;29;20016;-84
2021/06/20 08:57:51;;;;;;;4.82;3.80;;;;;;;20.06;65.78;100706.09;4825220;29;20023;-85
2021/06/20 09:00:18;;;;;;;5.85;4.05;;;;;;;19.89;65.38;100646.19;4826051;29;20053;-85
2021/06/20 09:02:55;;;;;;;5.47;3.97;;;;;;;20.50;65.08;100713.97;4810226;29;20015;-81
2021/06/20 09:05:21;;;;;;;6.55;4.20;;;;;;;20.47;64.85;100662.59;4810880;29;20018;-85
2021/06/20 09:07:46;;;;;;;5.07;3.80;;;;;;;21.06;64.38;100725.94;4815491;29;20027;-85
2021/06/20 09:10:16;;;;;;;5.65;4.05;;;;;;;20.91;64.10;100693.06;4829285;29;20042;-86
2021/06/20 09:12:46;;;;;;;6.00;3.83;;;;;;;20.75;63.57;100711.34;4824590;29;20118;-85
2021/06/20 09:15:16;;;;;;;6.10;4.20;;;;;;;20.90;63.93;100742.59;4810627;29;20095;-85
2021/06/20 09:17:50;;;;;;;5.63;3.80;;;;;;;21.32;64.09;100803.44;4812272;29;20019;-84
2021/06/20 09:20:16;;;;;;;9.40;3.60;;;;;;;20.61;64.13;100645.41;4818640;29;20114;-85
2021/06/20 09:22:42;;;;;;;6.70;3.53;;;;;;;20.76;64.09;100707.53;4809629;29;20042;-85
2021/06/20 09:25:11;;;;;;;7.72;3.60;;;;;;;20.67;63.95;100607.16;4805100;29;20039;-82
2021/06/20 09:27:37;;;;;;;6.75;3.90;;;;;;;20.96;63.57;100613.75;4818365;29;20030;-81
2021/06/20 09:30:12;;;;;;;7.72;4.00;;;;;;;21.74;62.36;100714.75;4822383;29;20026;-80
2021/06/20 09:32:51;;;;;;;6.50;3.60;;;;;;;22.20;62.83;100776.91;4808342;29;20031;-81
2021/06/20 09:35:17;;;;;;;5.80;3.45;;;;;;;22.33;62.44;100776.31;4804835;30;20035;-81
2021/06/20 09:37:56;;;;;;;5.10;3.13;;;;;;;21.71;61.55;100665.19;4803739;29;20023;-81
2021/06/20 09:40:29;;;;;;;7.13;4.20;;;;;;;21.70;61.82;100671.75;4799598;29;20064;-80
2021/06/20 09:42:58;;;;;;;8.05;3.80;;;;;;;22.11;61.95;100712.75;4789652;29;20033;-82
2021/06/20 09:45:29;;;;;;;5.18;3.50;;;;;;;22.66;61.88;100746.59;4798884;29;20043;-82
2021/06/20 09:47:59;;;;;;;4.60;3.60;;;;;;;22.73;61.57;100736.94;4813292;29;20062;-82
2021/06/20 09:50:43;;;;;;;7.13;3.45;;;;;;;21.89;61.01;100615.28;4816915;29;20089;-81
2021/06/20 09:53:12;;;;;;;7.00;3.97;;;;;;;22.75;61.50;100703.75;4831000;29;20383;-82
2021/06/20 09:55:39;;;;;;;5.07;3.22;;;;;;;23.01;61.02;100718.16;4822903;29;20061;-82
2021/06/20 09:58:04;;;;;;;5.20;3.53;;;;;;;22.24;61.33;100629.97;4811117;30;20034;-80
2021/06/20 10:00:41;;;;;;;7.68;3.75;;;;;;;22.73;61.20;100695.78;4810858;29;20031;-83
2021/06/20 10:03:09;;;;;;;7.80;3.50;;;;;;;21.57;61.40;100520.63;4800908;29;20027;-83
2021/06/20 10:05:34;;;;;;;5.95;3.65;;;;;;;21.94;61.45;100557.72;4830204;29;20034;-83
2021/06/20 10:08:01;;;;;;;6.05;3.67;;;;;;;21.69;60.88;100479.25;4829578;29;20049;-83
2021/06/20 10:10:28;;;;;;;6.57;3.10;;;;;;;22.45;60.78;100581.31;4810915;29;20027;-84
2021/06/20 10:12:54;;;;;;;4.18;2.97;;;;;;;22.82;60.75;100621.97;4810691;29;20027;-81
2021/06/20 10:15:20;;;;;;;5.65;3.13;;;;;;;22.65;61.14;100555.69;4797999;29;20015;-82
2021/06/20 10:17:55;;;;;;;5.50;3.08;;;;;;;22.71;60.29;100546.31;4810423;30;20046;-81
2021/06/20 10:20:22;;;;;;;5.95;3.03;;;;;;;22.30;60.67;100483.56;4824363;29;20126;-81
2021/06/20 10:22:49;;;;;;;5.88;3.25;;;;;;;22.91;60.99;100537.09;4827475;29;20027;-81
2021/06/20 10:25:29;;;;;;;6.20;3.40;;;;;;;23.13;60.22;100599.78;4816631;29;20370;-80
2021/06/20 10:28:12;;;;;;;7.30;3.40;;;;;;;23.00;60.44;100589.47;4810592;29;20019;-81
2021/06/20 10:30:38;;;;;;;4.93;3.25;;;;;;;23.08;60.67;100584.19;4799273;29;20038;-82
2021/06/20 10:33:18;;;;;;;6.28;3.17;;;;;;;23.26;60.47;100557.13;4797409;29;20034;-82
2021/06/20 10:35:56;;;;;;;5.57;3.30;;;;;;;23.53;60.02;100575.78;4795829;29;20031;-79
2021/06/20 10:38:37;;;;;;;4.57;3.05;;;;;;;23.54;59.78;100566.44;4799897;29;20034;-79
2021/06/20 10:41:02;;;;;;;4.70;3.40;;;;;;;23.73;59.96;100559.09;4793187;29;20055;-80
2021/06/20 10:43:28;;;;;;;3.78;2.88;;;;;;;23.83;58.99;100552.66;4798647;29;20043;-80
2021/06/20 10:45:53;;;;;;;4.18;2.65;;;;;;;23.99;58.67;100572.53;4799136;29;20400;-80
2021/06/20 10:48:34;;;;;;;3.78;2.65;;;;;;;23.96;58.29;100573.13;4791029;29;20180;-79
2021/06/20 10:51:00;;;;;;;3.55;2.90;;;;;;;23.92;58.54;100573.69;4795044;29;20429;-80
2021/06/20 10:53:27;;;;;;;5.15;3.22;;;;;;;23.68;58.61;100579.22;4793816;29;20055;-80
2021/06/20 10:55:58;;;;;;;4.07;2.70;;;;;;;23.36;58.35;100524.06;4800929;29;20164;-80
2021/06/20 10:58:29;;;;;;;6.20;3.08;;;;;;;23.76;58.49;100543.97;4801864;29;20035;-80
2021/06/20 11:01:19;;;;;;;3.75;2.50;;;;;;;23.82;59.04;100554.59;4803556;29;20114;-81
2021/06/20 11:04:00;;;;;;;4.18;2.85;;;;;;;23.94;57.89;100543.19;4796881;29;20042;-82
2021/06/20 11:06:26;;;;;;;5.43;2.70;;;;;;;23.98;58.09;100560.72;4826207;29;20099;-84
2021/06/20 11:08:59;;;;;;;4.22;2.55;;;;;;;23.91;58.46;100563.84;4814822;29;20031;-84
2021/06/20 11:12:04;;;;;;;4.85;2.70;;;;;;;24.22;57.94;100560.66;4827692;29;20264;-84
2021/06/20 11:14:40;;;;;;;5.88;2.90;;;;;;;24.53;57.93;100561.06;4794406;29;20020;-84
2021/06/20 11:17:08;;;;;;;4.68;2.63;;;;;;;24.63;57.57;100565.59;4791143;30;20027;-84
2021/06/20 11:19:34;;;;;;;3.63;2.60;;;;;;;24.73;57.21;100579.19;4812289;29;20027;-84
2021/06/20 11:22:02;;;;;;;3.67;2.53;;;;;;;24.56;57.53;100576.97;4809301;29;20451;-84
2021/06/20 11:24:34;;;;;;;4.28;2.63;;;;;;;24.53;57.99;100587.75;4802522;29;20028;-82
2021/06/20 11:27:03;;;;;;;9.15;3.75;;;;;;;24.33;57.70;100567.66;4811484;29;20008;-84
2021/06/20 11:29:48;;;;;;;3.88;2.72;;;;;;;24.28;58.04;100564.16;4807232;29;20067;-82
2021/06/20 11:32:30;;;;;;;5.63;2.60;;;;;;;24.21;58.27;100585.72;4819022;29;20257;-83
2021/06/20 11:35:06;;;;;;;2.72;2.20;;;;;;;24.14;58.09;100573.16;4830136;29;20101;-85
2021/06/20 11:37:33;;;;;;;9.48;3.20;;;;;;;23.86;59.77;100571.31;4815548;29;20030;-84
2021/06/20 11:40:09;;;;;;;7.50;3.60;;;;;;;23.42;62.85;100555.84;4820316;29;20043;-86
2021/06/20 11:42:40;;;;;;;8.10;3.90;;;;;;;23.30;65.45;100566.41;4803605;29;20015;-84
2021/06/20 11:45:05;;;;;;;19.70;5.75;;;;;;;22.79;67.15;100600.59;4815943;29;20030;-85
2021/06/20 11:47:51;;;;;;;10.50;4.32;;;;;;;22.43;69.19;100663.06;4827502;29;20022;-85
2021/06/20 11:50:24;;;;;;;9.02;4.68;;;;;;;22.16;70.83;100737.44;4830084;29;20019;-84
2021/06/20 11:52:57;;;;;;;10.75;5.72;;;;;;;21.48;71.51;100710.38;4811661;29;20051;-85
2021/06/20 14:24:24;;;;;;;18.83;11.53;;;;;;;18.04;89.45;100333.25;5849598;24;20194;31
2021/06/20 14:26:52;;;;;;;16.17;11.37;;;;;;;17.36;89.28;100209.66;4827665;29;20243;-81
2021/06/20 14:29:17;;;;;;;14.93;11.43;;;;;;;17.37;89.56;100198.50;4841504;29;20137;-80
2021/06/20 14:31:43;;;;;;;13.98;11.05;;;;;;;17.63;89.39;100206.06;4827942;29;20030;-81
2021/06/20 14:34:09;;;;;;;15.00;10.75;;;;;;;18.02;89.80;100263.81;4829915;29;20054;-80
2021/06/20 14:36:35;;;;;;;15.23;11.13;;;;;;;17.77;89.81;100218.19;4822282;29;20041;-81
2021/06/20 14:39:01;;;;;;;20.25;11.90;;;;;;;18.00;89.59;100231.41;4832674;29;20034;-80
2021/06/20 14:41:26;;;;;;;15.40;10.57;;;;;;;18.17;89.33;100231.22;4826467;29;20038;-80
2021/06/20 14:43:52;;;;;;;11.13;9.43;;;;;;;18.58;89.62;100274.22;4821882;29;20411;-78
2021/06/20 14:46:17;;;;;;;11.02;8.70;;;;;;;18.88;89.48;100295.38;4813384;29;20062;-78
2021/06/20 14:48:44;;;;;;;13.32;9.75;;;;;;;19.10;88.51;100292.44;4814780;29;20114;-79
2021/06/20 14:51:09;;;;;;;11.77;9.30;;;;;;;19.52;88.18;100310.56;4817411;29;20034;-79
2021/06/20 14:53:35;;;;;;;14.82;9.90;;;;;;;19.95;87.40;100307.31;4817423;29;20040;-79
2021/06/20 14:56:00;;;;;;;11.18;8.73;;;;;;;20.25;86.71;100305.66;4821693;29;20038;-80
2021/06/20 14:58:26;;;;;;;12.32;8.48;;;;;;;20.33;86.33;100302.38;4824568;29;20102;-81
2021/06/20 15:00:52;;;;;;;12.52;8.73;;;;;;;20.59;85.52;100305.88;4822726;29;20023;-81
2021/06/20 15:03:18;;;;;;;11.95;8.32;;;;;;;20.88;85.07;100302.50;4825790;29;20056;-80
2021/06/20 15:05:44;;;;;;;11.98;8.80;;;;;;;21.11;84.60;100309.25;4827090;29;20026;-80
2021/06/20 15:08:09;;;;;;;10.23;8.50;;;;;;;21.35;84.34;100298.47;4823903;29;20057;-80
2021/06/20 15:10:35;;;;;;;11.65;7.95;;;;;;;21.30;83.78;100307.50;4827201;29;20027;-80
2021/06/20 15:13:00;;;;;;;9.30;7.47;;;;;;;21.34;83.17;100296.81;4825983;29;20018;-81
2021/06/20 15:15:26;;;;;;;13.68;7.80;;;;;;;21.44;82.85;100302.25;4823064;29;20115;-78
2021/06/20 15:17:51;;;;;;;9.98;7.88;;;;;;;21.74;82.75;100311.34;4804785;29;20035;-79
2021/06/20 15:20:17;;;;;;;9.15;7.90;;;;;;;22.01;82.25;100300.69;4809066;29;20035;-79
2021/06/20 15:22:42;;;;;;;11.85;7.93;;;;;;;22.23;81.64;100297.53;4818855;29;20038;-79
2021/06/20 15:25:09;;;;;;;9.13;7.35;;;;;;;22.21;81.00;100274.25;4817837;29;20141;-79
2021/06/20 15:27:35;;;;;;;11.13;7.68;;;;;;;22.40;80.39;100264.19;4833682;29;20027;-80
2021/06/20 15:30:03;;;;;;;11.60;8.05;;;;;;;22.68;80.06;100278.94;4832628;29;20045;-79
2021/06/20 15:32:43;;;;;;;12.50;7.68;;;;;;;22.94;79.80;100284.13;4814726;29;20425;-80
2021/06/20 15:35:10;;;;;;;7.90;7.10;;;;;;;23.16;78.75;100281.63;4829521;29;20045;-80
2021/06/20 15:37:47;;;;;;;8.75;7.47;;;;;;;23.36;77.99;100269.53;4814100;29;20045;-79
2021/06/20 15:40:13;;;;;;;9.23;7.30;;;;;;;23.52;77.64;100277.56;4808664;29;20470;-80
2021/06/20 15:42:38;;;;;;;9.23;7.80;;;;;;;23.67;76.93;100280.03;4807898;29;20076;-80
2021/06/20 15:45:11;;;;;;;8.27;7.45;;;;;;;23.72;76.53;100288.25;4809728;29;20488;-79
2021/06/20 15:47:39;;;;;;;10.25;7.57;;;;;;;23.89;76.27;100305.00;4810579;29;20038;-79
2021/06/20 15:50:06;;;;;;;10.30;7.47;;;;;;;24.07;75.54;100295.09;4812408;29;20054;-80
2021/06/20 15:52:32;;;;;;;11.32;7.53;;;;;;;24.13;75.33;100290.28;4818146;29;20042;-80
2021/06/20 15:54:57;;;;;;;12.02;8.10;;;;;;;24.18;74.40;100292.16;4814357;29;20108;-80
2021/06/20 15:57:23;;;;;;;8.35;7.40;;;;;;;24.26;74.11;100306.00;4820801;29;20039;-80
2021/06/20 15:59:54;;;;;;;10.25;8.48;;;;;;;24.11;74.20;100300.78;4809332;29;20030;-79
2021/06/20 16:02:20;;;;;;;13.75;7.88;;;;;;;24.12;73.72;100296.91;4810635;29;22210;-79
2021/06/20 16:04:45;;;;;;;11.48;7.78;;;;;;;24.22;72.81;100304.16;4812725;29;20037;-80
2021/06/20 16:07:11;;;;;;;10.88;7.60;;;;;;;24.20;73.05;100296.22;4812399;29;20042;-79
2021/06/20 16:09:37;;;;;;;9.55;7.20;;;;;;;24.25;72.20;100298.88;4808489;29;20102;-78
2021/06/20 16:12:03;;;;;;;8.90;6.70;;;;;;;24.24;72.40;100304.66;4781440;29;20053;-79
2021/06/20 16:14:28;;;;;;;8.63;6.65;;;;;;;24.26;71.49;100299.69;4808149;29;20038;-79
2021/06/20 16:16:54;;;;;;;12.77;6.38;;;;;;;24.30;71.42;100298.75;4805022;29;20031;-78
2021/06/20 16:19:19;;;;;;;8.82;7.35;;;;;;;24.30;71.30;100306.19;4807504;29;20062;-79
2021/06/20 16:21:45;;;;;;;9.85;7.22;;;;;;;24.38;71.33;100309.09;4808267;29;20080;-80
2021/06/20 16:24:10;;;;;;;11.00;7.57;;;;;;;24.27;71.23;100299.41;4830433;29;20083;-79
2021/06/20 16:26:36;;;;;;;11.35;7.25;;;;;;;24.27;71.26;100298.56;4814661;29;20054;-80
2021/06/20 16:29:02;;;;;;;13.65;7.40;;;;;;;24.26;71.21;100297.75;4812329;29;20050;-80
2021/06/20 16:31:27;;;;;;;11.80;7.50;;;;;;;24.24;70.88;100301.91;4812398;29;20031;-79
2021/06/20 16:33:52;;;;;;;13.07;7.13;;;;;;;24.15;70.59;100285.31;4810410;29;20027;-79
2021/06/20 16:36:18;;;;;;;12.73;7.10;;;;;;;24.25;70.58;100306.31;4812955;29;20030;-79
2021/06/20 16:38:44;;;;;;;13.15;6.60;;;;;;;23.94;70.78;100304.09;4805722;29;20090;-79
2021/06/20 16:41:09;;;;;;;12.80;7.70;;;;;;;23.56;71.44;100311.53;4819744;29;20088;-79
2021/06/20 16:43:35;;;;;;;16.05;12.75;;;;;;;23.23;72.29;100314.22;4808632;29;20039;-82
2021/06/20 16:46:04;;;;;;;13.55;8.00;;;;;;;23.08;72.65;100318.00;4809123;29;20042;-78
2021/06/20 16:48:30;;;;;;;13.93;7.32;;;;;;;22.86;73.36;100313.00;4809134;29;20647;-78
2021/06/20 16:53:30;;;;;;;13.27;7.85;;;;;;;21.77;74.50;100182.06;5011364;24;20074;-79
2021/06/20 16:55:56;;;;;;;11.70;7.95;;;;;;;21.71;74.52;100180.47;4808295;29;20210;-81
2021/06/20 16:58:23;;;;;;;16.85;7.95;;;;;;;22.20;74.24;100210.41;4832085;29;20026;-82
2021/06/20 17:03:24;;;;;;;12.05;7.65;;;;;;;22.67;73.41;100227.13;5024060;24;20046;-81
2021/06/20 17:05:53;;;;;;;12.25;7.05;;;;;;;23.12;73.21;100275.13;4839534;24;20065;-80
2021/06/20 17:08:18;;;;;;;11.00;7.32;;;;;;;22.46;72.78;100163.50;4829994;29;20073;-82
2021/06/20 17:10:44;;;;;;;12.57;7.30;;;;;;;22.60;72.56;100174.56;4822400;29;20035;-81
2021/06/20 17:13:11;;;;;;;11.27;7.72;;;;;;;23.26;72.30;100274.38;4827310;29;20022;-82
2021/06/20 17:15:36;;;;;;;13.93;7.47;;;;;;;23.29;72.32;100280.09;4838706;29;20019;-82
2021/06/20 17:18:01;;;;;;;13.10;7.60;;;;;;;23.18;72.62;100260.22;4811811;29;20102;-82
2021/06/20 17:20:27;;;;;;;11.30;7.05;;;;;;;23.25;72.57;100270.81;4810877;29;20026;-82
2021/06/20 17:22:53;;;;;;;10.93;7.60;;;;;;;23.24;72.34;100257.38;4829963;29;20019;-81
2021/06/20 17:25:19;;;;;;;12.75;7.38;;;;;;;23.27;72.48;100263.09;4831979;29;20027;-82
2021/06/20 17:27:47;;;;;;;13.15;7.50;;;;;;;22.46;72.51;100147.88;4867587;24;20142;-81
2021/06/20 17:32:49;;;;;;;15.95;8.05;;;;;;;23.06;72.25;100228.84;5459264;24;20069;-81
2021/06/20 17:35:17;;;;;;;13.50;7.38;;;;;;;22.67;72.38;100169.53;4831026;29;20011;-80
2021/06/20 17:37:44;;;;;;;12.88;7.63;;;;;;;22.49;72.52;100150.03;4828624;29;20051;-81
2021/06/20 17:42:46;;;;;;;13.52;8.10;;;;;;;22.81;72.93;100214.31;5321913;24;20075;-81
2021/06/20 17:45:14;;;;;;;12.95;7.88;;;;;;;22.39;72.86;100150.16;4826140;29;20034;-81
2021/06/20 17:47:40;;;;;;;13.10;7.63;;;;;;;22.46;72.82;100142.38;4824306;29;20031;-81
2021/06/20 17:50:06;;;;;;;13.60;8.05;;;;;;;23.26;72.67;100277.94;4825165;29;20078;-80
2021/06/20 17:52:33;;;;;;;14.75;7.85;;;;;;;23.27;72.51;100270.50;4828003;29;20071;-82
2021/06/20 17:55:00;;;;;;;13.85;7.32;;;;;;;23.24;72.81;100271.09;4820034;29;20043;-81
2021/06/20 17:57:29;;;;;;;16.13;7.88;;;;;;;22.64;72.44;100178.34;4830382;29;20068;-81
2021/06/20 17:59:55;;;;;;;13.30;7.55;;;;;;;22.45;72.76;100143.50;4828828;29;20080;-81
2021/06/20 18:02:20;;;;;;;13.93;7.68;;;;;;;22.97;72.58;100217.69;4832451;29;20026;-82
2021/06/20 18:15:04;;;;;;;13.25;7.70;;;;;;;22.60;72.67;100180.06;4868929;24;20063;-81
2021/06/20 18:17:30;;;;;;;13.13;7.60;;;;;;;23.05;72.71;100257.41;5059334;24;20058;-80
2021/06/20 18:19:56;;;;;;;11.05;7.18;;;;;;;23.02;72.76;100272.50;4810430;29;20027;-79
2021/06/20 18:22:21;;;;;;;15.02;7.45;;;;;;;23.03;72.49;100273.31;4812143;29;20035;-79
2021/06/20 18:24:46;;;;;;;12.93;7.13;;;;;;;23.02;72.38;100266.22;4811584;29;20530;-79
2021/06/20 18:27:12;;;;;;;15.45;7.40;;;;;;;23.01;72.09;100278.28;4789200;30;20031;-79
2021/06/20 18:29:37;;;;;;;11.93;6.40;;;;;;;22.90;72.17;100278.38;4806454;29;20050;-79
2021/06/20 18:32:03;;;;;;;12.15;6.07;;;;;;;22.82;71.91;100268.06;4808232;29;20062;-79
2021/06/20 18:34:29;;;;;;;15.10;5.75;;;;;;;22.71;71.61;100267.41;4808199;29;20129;-79
2021/06/20 18:36:54;;;;;;;13.27;6.43;;;;;;;22.69;71.37;100269.59;4808963;29;20034;-79
2021/06/20 18:39:20;;;;;;;12.82;6.32;;;;;;;22.54;71.87;100278.00;4808870;29;20038;-78
2021/06/20 18:41:47;;;;;;;17.70;6.28;;;;;;;22.42;72.07;100285.84;4793701;29;20045;-79
2021/06/20 18:44:13;;;;;;;14.73;5.78;;;;;;;22.23;72.41;100288.50;4819834;29;20470;-78
2021/06/20 18:46:41;;;;;;;10.80;5.57;;;;;;;22.05;72.40;100266.16;4805406;29;20042;-78
2021/06/20 18:49:06;;;;;;;15.00;5.35;;;;;;;22.12;72.38;100297.88;4806986;29;20037;-79
2021/06/20 18:51:32;;;;;;;13.60;5.40;;;;;;;22.12;72.57;100301.44;4808939;29;20035;-79
2021/06/20 18:53:57;;;;;;;9.15;5.28;;;;;;;22.03;72.41;100298.50;4807082;29;20388;-78
2021/06/20 18:56:23;;;;;;;10.25;5.25;;;;;;;22.07;72.39;100308.88;4807395;29;20117;-78
2021/06/20 18:58:49;;;;;;;18.85;5.20;;;;;;;21.87;72.47;100307.94;4805039;29;20047;-78
2021/06/20 19:01:15;;;;;;;14.82;5.00;;;;;;;21.74;72.79;100312.16;4806899;29;20510;-79
2021/06/20 19:03:41;;;;;;;13.45;4.50;;;;;;;21.58;73.03;100316.91;4806660;29;20652;-79
2021/06/20 19:06:06;;;;;;;11.95;4.18;;;;;;;21.37;73.29;100315.44;4804312;29;20037;-78
2021/06/20 19:08:32;;;;;;;15.10;3.70;;;;;;;21.06;73.31;100287.41;4808792;29;20027;-78